createdAt,value
2023-04-12T00:01:37.888Z,67.74
2023-04-12T00:11:40.612Z,67.29
2023-04-12T00:21:43.798Z,67.95
2023-04-12T00:31:46.253Z,70.02
2023-04-12T00:41:48.766Z,70.70
2023-04-12T00:51:51.470Z,71.06
2023-04-12T01:01:56.500Z,71.31
2023-04-12T01:12:17.196Z,70.44
2023-04-12T01:22:43.555Z,70.84
2023-04-12T01:32:51.367Z,72.21
2023-04-12T01:43:12.205Z,72.54
2023-04-12T01:53:22.920Z,72.59
2023-04-12T02:03:26.612Z,72.07
2023-04-12T02:13:29.988Z,72.60
2023-04-12T02:23:33.271Z,75.77
2023-04-12T02:33:35.790Z,74.30
2023-04-12T02:43:42.782Z,73.44
2023-04-12T02:53:45.458Z,73.60
2023-04-12T03:04:02.249Z,76.86
2023-04-12T03:14:17.257Z,79.09
2023-04-12T03:24:19.921Z,78.41
2023-04-12T03:34:22.846Z,80.28
2023-04-12T03:44:29.087Z,84.13
2023-04-12T03:54:33.999Z,83.52
2023-04-12T04:04:41.690Z,82.56
2023-04-12T04:14:47.149Z,84.02
2023-04-12T04:25:01.292Z,85.69
2023-04-12T04:35:06.474Z,84.22
2023-04-12T04:45:28.424Z,84.86
2023-04-12T04:55:31.153Z,85.26
2023-04-12T05:05:33.774Z,83.34
2023-04-12T05:15:46.021Z,81.31
2023-04-12T05:25:50.115Z,77.32
2023-04-12T05:35:54.514Z,73.16
2023-04-12T05:45:57.505Z,76.23
2023-04-12T05:56:00.539Z,75.84
2023-04-12T06:06:04.040Z,74.48
2023-04-12T06:16:07.248Z,69.62
2023-04-12T06:26:11.628Z,68.39
2023-04-12T06:36:16.252Z,63.76
2023-04-12T06:46:27.134Z,60.74
2023-04-12T06:56:29.840Z,59.93
2023-04-12T07:06:32.962Z,57.63
2023-04-12T07:16:35.671Z,56.33
2023-04-12T07:26:38.305Z,55.36
2023-04-12T07:36:41.105Z,52.95
2023-04-12T07:46:44.438Z,50.85
2023-04-12T07:57:03.929Z,48.34
2023-04-12T08:07:06.468Z,48.18
2023-04-12T08:17:09.143Z,46.24
2023-04-12T08:27:13.990Z,46.64
2023-04-12T08:37:17.139Z,48.13
2023-04-12T08:47:21.148Z,46.08
2023-04-12T09:08:54.796Z,42.79
2023-04-12T09:18:58.384Z,41.05
2023-04-12T09:29:04.077Z,40.72
2023-04-12T09:39:08.147Z,40.15
2023-04-12T09:49:11.001Z,37.98
2023-04-12T09:59:16.696Z,37.75
2023-04-12T10:09:19.782Z,36.46
2023-04-12T10:19:25.459Z,37.45
2023-04-12T10:29:38.654Z,35.75
2023-04-12T10:39:44.751Z,39.27
2023-04-12T10:50:20.791Z,38.30
2023-04-12T11:00:23.433Z,39.70
2023-04-12T11:10:26.605Z,36.13
2023-04-12T11:20:29.685Z,38.10
2023-04-12T11:30:34.512Z,39.01
2023-04-12T11:40:37.332Z,36.71
2023-04-12T11:50:40.576Z,32.58
2023-04-12T12:00:45.621Z,31.28
2023-04-12T12:11:06.343Z,31.56
2023-04-12T12:21:11.797Z,30.46
2023-04-12T12:31:20.505Z,30.92
2023-04-12T12:41:25.037Z,31.80
2023-04-12T12:51:28.115Z,32.68
2023-04-12T13:01:31.002Z,32.83
2023-04-12T13:11:33.627Z,34.76
2023-04-12T13:21:37.063Z,35.20
2023-04-12T13:31:39.833Z,37.05
2023-04-12T13:41:42.521Z,37.45
2023-04-12T13:51:45.132Z,34.62
2023-04-12T14:01:47.888Z,33.55
2023-04-12T14:11:51.158Z,29.11
2023-04-12T14:21:53.949Z,31.93
2023-04-12T14:31:56.368Z,33.76
2023-04-12T14:41:58.973Z,35.97
2023-04-12T14:52:02.100Z,37.77
2023-04-12T15:02:04.958Z,36.02
2023-04-12T15:12:08.446Z,38.10
2023-04-12T15:22:10.972Z,38.02
2023-04-12T15:32:13.505Z,37.24
2023-04-12T15:42:16.420Z,35.73
2023-04-12T15:52:18.855Z,37.81
2023-04-12T16:02:22.016Z,40.05
2023-04-12T16:12:24.746Z,40.56
2023-04-12T16:22:27.449Z,41.03
2023-04-12T16:32:31.834Z,41.81
2023-04-12T16:42:34.525Z,42.77
2023-04-12T16:52:37.774Z,43.91
2023-04-12T17:02:41.657Z,45.36
2023-04-12T17:12:45.996Z,45.79
2023-04-12T17:22:49.856Z,46.52
2023-04-12T17:32:53.489Z,47.88
2023-04-12T17:42:56.132Z,48.12
2023-04-12T17:53:00.083Z,48.63
2023-04-12T18:03:03.037Z,49.07
2023-04-12T18:13:06.901Z,49.10
2023-04-12T18:23:09.597Z,51.59
2023-04-12T18:33:12.843Z,52.52
2023-04-12T18:43:16.120Z,55.36
2023-04-12T18:53:18.580Z,53.57
2023-04-12T19:03:21.946Z,53.05
2023-04-12T19:13:25.036Z,54.28
2023-04-12T19:23:28.218Z,52.19
2023-04-12T19:33:31.229Z,51.96
2023-04-12T19:43:34.069Z,51.91
2023-04-12T19:53:36.991Z,51.22
2023-04-12T20:03:43.703Z,51.41
2023-04-12T20:13:46.604Z,51.90
2023-04-12T20:23:52.188Z,52.29
2023-04-12T20:33:55.936Z,52.97
2023-04-12T20:43:59.507Z,53.63
2023-04-12T20:54:03.025Z,52.94
2023-04-12T21:04:06.295Z,53.04
2023-04-12T21:14:09.175Z,52.99
2023-04-12T21:24:12.148Z,53.48
2023-04-12T21:34:14.959Z,53.95
2023-04-12T21:44:18.131Z,54.31
2023-04-12T21:54:20.600Z,54.12
2023-04-12T22:04:23.080Z,54.81
2023-04-12T22:14:30.401Z,55.23
2023-04-12T22:24:32.960Z,55.52
2023-04-12T22:34:37.201Z,54.16
2023-04-12T22:44:39.735Z,54.24
2023-04-12T22:54:42.236Z,54.29
2023-04-12T23:04:48.928Z,54.66
2023-04-12T23:14:55.590Z,55.47
2023-04-12T23:24:59.897Z,56.75
2023-04-12T23:35:02.387Z,60.17
2023-04-12T23:45:06.162Z,60.72
2023-04-12T23:55:08.957Z,62.24
